Time;durP1;ratioP1;P1;durP2;ratioP2;P2;SDS_P1;SDS_P2;PMS_P1;PMS_P2;Temp;Humidity;BMP_temperature;BMP_pressure;BME280_temperature;BME280_humidity;BME280_pressure;Samples;Min_cycle;Max_cycle;Signal;HPM_P1;HPM_P2
2023/10/08 00:01:42;;;;;;;;;;;13.90;85.40;;;;;;4995532;28;20030;-63
2023/10/08 00:04:11;;;;;;;;;;;13.90;84.60;;;;;;4995532;28;20029;-63
2023/10/08 00:06:37;;;;;;;;;;;14.00;83.20;;;;;;4995358;28;19983;-64
2023/10/08 00:09:08;;;;;;;;;;;14.00;83.90;;;;;;4995380;28;19987;-64
2023/10/08 00:11:37;;;;;;;;;;;14.00;85.50;;;;;;4995425;28;20061;-63
2023/10/08 00:14:05;;;;;;;;;;;14.00;83.20;;;;;;4995376;28;20433;-64
2023/10/08 00:16:33;;;;;;;;;;;14.10;82.60;;;;;;4995321;28;20360;-64
2023/10/08 00:19:07;;;;;;;;;;;14.10;83.70;;;;;;4995176;28;19994;-64
2023/10/08 00:21:34;;;;;;;;;;;14.00;83.00;;;;;;4994850;28;19982;-64
2023/10/08 00:24:01;;;;;;;;;;;14.10;82.10;;;;;;4995311;28;19989;-64
2023/10/08 00:26:27;;;;;;;;;;;14.10;82.10;;;;;;4995130;28;19982;-63
2023/10/08 00:28:54;;;;;;;;;;;14.10;82.90;;;;;;4994997;28;19991;-64
2023/10/08 00:31:23;;;;;;;;;;;14.10;84.10;;;;;;4994994;28;20366;-64
2023/10/08 00:33:49;;;;;;;;;;;14.00;84.10;;;;;;4994879;28;19987;-64
2023/10/08 00:36:18;;;;;;;;;;;14.10;85.60;;;;;;4994944;28;20037;-63
2023/10/08 00:38:45;;;;;;;;;;;14.10;84.50;;;;;;4994930;28;19990;-64
2023/10/08 00:41:16;;;;;;;;;;;14.20;84.90;;;;;;4994913;28;19987;-64
2023/10/08 00:43:44;;;;;;;;;;;14.20;83.10;;;;;;4994733;28;19985;-64
2023/10/08 00:48:55;;;;;;;;;;;14.20;83.50;;;;;;4994862;28;19990;-64
2023/10/08 00:51:31;;;;;;;;;;;14.20;83.10;;;;;;4994617;28;20013;-64
2023/10/08 00:54:05;;;;;;;;;;;14.10;82.70;;;;;;4994682;28;19983;-64
2023/10/08 00:59:37;;;;;;;;;;;14.20;81.90;;;;;;4961869;28;20342;-64
2023/10/08 01:02:07;;;;;;;;;;;14.20;81.80;;;;;;4994608;28;20033;-63
2023/10/08 01:04:37;;;;;;;;;;;14.20;82.10;;;;;;4994249;28;20018;-63
2023/10/08 01:07:12;;;;;;;;;;;14.20;81.60;;;;;;4994391;28;19983;-64
2023/10/08 01:09:39;;;;;;;;;;;14.20;81.70;;;;;;4994551;28;19982;-64
2023/10/08 01:12:09;;;;;;;;;;;14.10;82.50;;;;;;4994280;28;20057;-64
2023/10/08 01:14:35;;;;;;;;;;;14.10;84.10;;;;;;4994501;28;19987;-63
2023/10/08 01:17:01;;;;;;;;;;;14.10;83.40;;;;;;4994215;28;20097;-64
2023/10/08 01:19:27;;;;;;;;;;;14.10;83.30;;;;;;4994276;28;20155;-64
2023/10/08 01:21:53;;;;;;;;;;;14.10;84.00;;;;;;4994412;28;19990;-64
2023/10/08 01:24:23;;;;;;;;;;;14.10;85.00;;;;;;4994253;28;19987;-64
2023/10/08 01:26:49;;;;;;;;;;;14.10;85.20;;;;;;4994189;28;20029;-64
2023/10/08 01:29:21;;;;;;;;;;;14.10;86.30;;;;;;4994210;28;19983;-64
2023/10/08 01:31:48;;;;;;;;;;;14.10;84.30;;;;;;4993152;28;20013;-64
2023/10/08 01:34:17;;;;;;;;;;;14.20;84.30;;;;;;4994126;28;19983;-64
2023/10/08 01:36:46;;;;;;;;;;;14.20;84.60;;;;;;4994163;28;20070;-64
2023/10/08 01:39:16;;;;;;;;;;;14.20;84.00;;;;;;4976791;28;19994;-64
2023/10/08 01:41:46;;;;;;;;;;;14.30;83.70;;;;;;4994103;28;20464;-64
2023/10/08 01:44:12;;;;;;;;;;;14.30;84.30;;;;;;4994149;28;19983;-64
2023/10/08 01:46:40;;;;;;;;;;;14.30;84.40;;;;;;4976279;28;20327;-64
2023/10/08 01:49:14;;;;;;;;;;;14.30;85.90;;;;;;4993993;28;20177;-64
2023/10/08 01:51:46;;;;;;;;;;;14.30;85.80;;;;;;4993941;28;20007;-64
2023/10/08 01:54:13;;;;;;;;;;;14.30;85.60;;;;;;4993929;28;19983;-64
2023/10/08 01:56:43;;;;;;;;;;;14.30;84.60;;;;;;4993975;28;20034;-64
2023/10/08 01:59:09;;;;;;;;;;;14.30;86.70;;;;;;4994008;28;19982;-64
2023/10/08 02:01:35;;;;;;;;;;;14.20;88.10;;;;;;4993677;28;20029;-64
2023/10/08 02:04:01;;;;;;;;;;;14.20;86.60;;;;;;4993306;28;20061;-63
2023/10/08 02:06:27;;;;;;;;;;;14.20;85.40;;;;;;4993062;28;19983;-64
2023/10/08 02:08:53;;;;;;;;;;;14.30;86.00;;;;;;4992974;28;20438;-64
2023/10/08 02:11:20;;;;;;;;;;;14.30;86.20;;;;;;4992880;28;20057;-64
2023/10/08 02:13:46;;;;;;;;;;;14.30;85.40;;;;;;4992983;28;19983;-64
2023/10/08 02:16:17;;;;;;;;;;;14.30;85.50;;;;;;4992708;28;19990;-64
2023/10/08 02:18:44;;;;;;;;;;;14.30;86.30;;;;;;4992872;28;19982;-64
2023/10/08 02:21:10;;;;;;;;;;;14.30;87.00;;;;;;4992823;28;19994;-64
2023/10/08 02:23:36;;;;;;;;;;;14.30;87.40;;;;;;4992798;28;19991;-64
2023/10/08 02:26:02;;;;;;;;;;;14.40;86.10;;;;;;4992921;28;19993;-63
2023/10/08 02:28:28;;;;;;;;;;;14.40;87.20;;;;;;4992879;28;20015;-64
2023/10/08 02:30:54;;;;;;;;;;;14.40;87.80;;;;;;4992607;28;19983;-63
2023/10/08 02:33:19;;;;;;;;;;;14.40;87.50;;;;;;4992695;28;19983;-64
2023/10/08 02:35:46;;;;;;;;;;;14.40;87.00;;;;;;4992816;28;19983;-64
2023/10/08 02:38:16;;;;;;;;;;;14.40;86.80;;;;;;4992666;28;19983;-64
2023/10/08 02:40:46;;;;;;;;;;;14.40;88.10;;;;;;4992536;28;20021;-64
2023/10/08 02:43:14;;;;;;;;;;;14.30;88.10;;;;;;4994004;28;19982;-64
2023/10/08 02:45:40;;;;;;;;;;;14.30;87.20;;;;;;4995790;28;19993;-64
2023/10/08 02:48:12;;;;;;;;;;;14.30;87.20;;;;;;4995822;28;19987;-64
2023/10/08 02:50:39;;;;;;;;;;;14.30;87.30;;;;;;4995827;28;20438;-64
2023/10/08 02:53:11;;;;;;;;;;;14.40;87.50;;;;;;4995679;28;20002;-64
2023/10/08 02:55:42;;;;;;;;;;;14.30;87.40;;;;;;4995811;28;19983;-63
2023/10/08 02:58:13;;;;;;;;;;;14.30;87.30;;;;;;4995694;28;19989;-64
2023/10/08 03:00:40;;;;;;;;;;;14.30;87.80;;;;;;4995365;28;19991;-63
2023/10/08 03:03:10;;;;;;;;;;;14.30;87.10;;;;;;4927769;28;1964072;-64
2023/10/08 03:05:35;;;;;;;;;;;14.20;88.10;;;;;;4996714;28;19990;-63
2023/10/08 03:08:01;;;;;;;;;;;14.30;88.80;;;;;;4996664;28;19994;-64
2023/10/08 03:10:33;;;;;;;;;;;14.20;87.90;;;;;;4996738;28;20326;-64
2023/10/08 03:13:04;;;;;;;;;;;14.30;88.70;;;;;;4996524;28;20457;-64
2023/10/08 03:15:30;;;;;;;;;;;14.30;88.50;;;;;;4996647;28;19986;-64
2023/10/08 03:18:08;;;;;;;;;;;14.20;88.60;;;;;;4996561;28;20085;-64
2023/10/08 03:20:45;;;;;;;;;;;14.30;90.10;;;;;;4996354;28;19998;-64
2023/10/08 03:23:23;;;;;;;;;;;14.30;90.00;;;;;;4996431;28;19986;-65
2023/10/08 03:26:01;;;;;;;;;;;14.30;90.00;;;;;;4996266;28;20014;-64
2023/10/08 03:28:34;;;;;;;;;;;14.20;90.00;;;;;;4996237;28;19986;-63
2023/10/08 03:31:12;;;;;;;;;;;14.20;90.10;;;;;;4996105;28;20440;-64
2023/10/08 03:33:39;;;;;;;;;;;14.20;90.30;;;;;;4996188;28;19987;-64
2023/10/08 03:36:20;;;;;;;;;;;14.20;90.60;;;;;;4996212;28;19986;-64
2023/10/08 03:38:52;;;;;;;;;;;14.20;90.50;;;;;;4996110;28;19986;-64
2023/10/08 03:41:18;;;;;;;;;;;14.10;90.20;;;;;;4996146;28;19987;-64
2023/10/08 03:43:55;;;;;;;;;;;14.10;89.90;;;;;;4995787;28;20041;-64
2023/10/08 03:46:23;;;;;;;;;;;14.10;89.90;;;;;;4995964;28;19990;-64
2023/10/08 03:48:51;;;;;;;;;;;14.10;90.70;;;;;;4995970;28;19990;-64
2023/10/08 03:51:20;;;;;;;;;;;14.10;91.00;;;;;;4995811;28;20141;-64
2023/10/08 03:53:59;;;;;;;;;;;14.00;91.40;;;;;;4995461;28;20307;-64
2023/10/08 03:56:25;;;;;;;;;;;14.10;91.20;;;;;;4995376;28;20453;-64
2023/10/08 03:58:53;;;;;;;;;;;14.10;91.40;;;;;;4995564;28;20102;-63
2023/10/08 04:01:20;;;;;;;;;;;14.10;91.90;;;;;;4995574;28;20054;-64
2023/10/08 04:06:22;;;;;;;;;;;14.20;91.80;;;;;;4995870;28;20442;-64
2023/10/08 04:11:35;;;;;;;;;;;14.10;91.90;;;;;;4995497;28;20034;-64
2023/10/08 04:14:04;;;;;;;;;;;14.20;92.30;;;;;;4995451;28;19993;-64
2023/10/08 04:16:36;;;;;;;;;;;14.10;93.10;;;;;;4995357;28;19994;-64
2023/10/08 04:19:03;;;;;;;;;;;14.10;92.70;;;;;;4995345;28;20097;-64
2023/10/08 04:21:29;;;;;;;;;;;14.20;93.40;;;;;;4995212;28;20109;-64
2023/10/08 04:23:57;;;;;;;;;;;14.20;93.30;;;;;;4995240;28;20377;-63
2023/10/08 04:26:23;;;;;;;;;;;14.20;93.50;;;;;;4995005;28;20464;-63
2023/10/08 04:29:02;;;;;;;;;;;14.20;93.60;;;;;;4995106;28;19997;-64
2023/10/08 04:31:44;;;;;;;;;;;14.20;92.70;;;;;;4995193;28;20011;-64
2023/10/08 04:34:15;;;;;;;;;;;14.20;93.20;;;;;;4994976;28;20013;-63
2023/10/08 04:36:46;;;;;;;;;;;14.30;93.80;;;;;;4995091;28;19987;-63
2023/10/08 04:39:14;;;;;;;;;;;14.20;94.20;;;;;;4995023;28;19994;-64
2023/10/08 04:41:42;;;;;;;;;;;14.30;93.90;;;;;;4994683;28;19994;-64
2023/10/08 04:44:14;;;;;;;;;;;14.30;94.00;;;;;;4994990;28;19986;-64
2023/10/08 04:46:47;;;;;;;;;;;14.40;93.80;;;;;;4994884;28;20353;-64
2023/10/08 04:49:28;;;;;;;;;;;14.30;93.80;;;;;;4994806;28;19986;-64
2023/10/08 04:51:57;;;;;;;;;;;14.30;93.80;;;;;;4994535;28;20038;-64
2023/10/08 04:54:32;;;;;;;;;;;14.30;92.80;;;;;;4994663;28;19994;-64
2023/10/08 04:56:59;;;;;;;;;;;14.30;93.40;;;;;;4994695;28;19990;-64
2023/10/08 04:59:32;;;;;;;;;;;14.40;92.60;;;;;;4994558;28;20082;-64
2023/10/08 05:04:56;;;;;;;;;;;14.40;92.60;;;;;;4994498;28;20029;-64
2023/10/08 05:15:37;;;;;;;;;;;14.50;92.90;;;;;;4967607;28;19998;-64
2023/10/08 05:18:23;;;;;;;;;;;14.50;93.10;;;;;;4994368;28;20084;-64
2023/10/08 05:29:00;;;;;;;;;;;14.60;93.10;;;;;;4994286;28;19990;-64
2023/10/08 05:34:28;;;;;;;;;;;14.60;93.70;;;;;;4994214;28;20334;-64
2023/10/08 05:37:31;;;;;;;;;;;14.60;93.10;;;;;;4994145;28;20038;-64
2023/10/08 05:39:46;;;;;;;;;;;14.70;93.70;;;;;;4991824;28;19998;-63
2023/10/08 05:42:31;;;;;;;;;;;14.70;93.20;;;;;;4994219;28;19993;-64
2023/10/08 05:52:50;;;;;;;;;;;14.90;93.60;;;;;;4993846;28;20019;-64
2023/10/08 05:55:26;;;;;;;;;;;14.90;93.30;;;;;;4993932;28;19994;-65
2023/10/08 05:58:24;;;;;;;;;;;14.90;93.90;;;;;;4994029;28;20137;-64
2023/10/08 06:03:46;;;;;;;;;;;15.10;92.60;;;;;;4993828;28;19991;-64
2023/10/08 06:11:55;;;;;;;;;;;15.20;91.70;;;;;;4957102;28;20037;-64
2023/10/08 06:17:34;;;;;;;;;;;15.30;91.80;;;;;;4994223;28;20363;-64
2023/10/08 06:20:01;;;;;;;;;;;15.40;91.90;;;;;;4997626;28;20041;-64
2023/10/08 06:22:27;;;;;;;;;;;15.40;91.60;;;;;;4997380;28;19986;-65
2023/10/08 06:25:15;;;;;;;;;;;15.40;91.60;;;;;;4997460;28;20077;-64
2023/10/08 06:27:39;;;;;;;;;;;15.40;92.30;;;;;;4997194;28;20180;-63
2023/10/08 06:30:05;;;;;;;;;;;15.50;92.10;;;;;;4997303;28;20086;-65
2023/10/08 06:32:31;;;;;;;;;;;15.60;92.40;;;;;;4997322;28;20108;-65
2023/10/08 06:34:56;;;;;;;;;;;15.70;92.40;;;;;;4997294;28;20432;-64
2023/10/08 06:37:22;;;;;;;;;;;16.00;92.30;;;;;;4997196;28;19993;-64
2023/10/08 06:39:48;;;;;;;;;;;16.30;91.30;;;;;;4997304;28;19987;-64
2023/10/08 06:42:17;;;;;;;;;;;16.60;90.10;;;;;;4997207;28;20086;-65
2023/10/08 06:44:45;;;;;;;;;;;16.70;87.40;;;;;;4997072;28;20467;-64
2023/10/08 06:47:13;;;;;;;;;;;16.70;87.70;;;;;;4997074;28;19991;-64
2023/10/08 06:49:38;;;;;;;;;;;16.70;86.70;;;;;;4997050;28;20017;-64
2023/10/08 06:52:04;;;;;;;;;;;16.70;85.70;;;;;;4996487;28;20105;-64
2023/10/08 06:54:30;;;;;;;;;;;16.80;85.20;;;;;;4996950;28;19987;-64
2023/10/08 06:56:56;;;;;;;;;;;16.80;84.50;;;;;;4997019;28;20034;-65
2023/10/08 06:59:25;;;;;;;;;;;16.80;82.90;;;;;;4996774;28;20479;-65
2023/10/08 07:01:51;;;;;;;;;;;16.90;83.80;;;;;;4996804;28;19986;-63
2023/10/08 07:04:18;;;;;;;;;;;17.00;84.50;;;;;;4996640;28;20029;-65
2023/10/08 07:06:46;;;;;;;;;;;17.10;84.40;;;;;;4996434;28;19991;-63
2023/10/08 07:11:54;;;;;;;;;;;17.40;87.40;;;;;;4996874;28;20011;-63
2023/10/08 07:14:22;;;;;;;;;;;17.50;84.80;;;;;;4996479;28;19990;-65
2023/10/08 07:16:52;;;;;;;;;;;17.80;80.60;;;;;;4996630;28;20085;-64
2023/10/08 07:19:18;;;;;;;;;;;18.00;76.20;;;;;;4996443;28;20038;-63
2023/10/08 07:21:45;;;;;;;;;;;18.20;73.20;;;;;;4996231;28;20464;-64
2023/10/08 07:24:17;;;;;;;;;;;18.50;71.80;;;;;;4996454;28;19986;-65
2023/10/08 07:26:46;;;;;;;;;;;18.60;68.90;;;;;;4996245;28;20038;-64
2023/10/08 07:29:13;;;;;;;;;;;18.80;69.70;;;;;;4995105;28;19987;-64
2023/10/08 07:31:42;;;;;;;;;;;18.90;69.50;;;;;;4996129;28;20010;-62
2023/10/08 07:36:51;;;;;;;;;;;18.90;70.00;;;;;;4996205;28;19993;-63
2023/10/08 07:39:33;;;;;;;;;;;18.80;71.00;;;;;;4996145;28;19987;-64
2023/10/08 07:42:05;;;;;;;;;;;18.70;72.00;;;;;;4996214;28;20226;-65
2023/10/08 07:44:30;;;;;;;;;;;18.70;67.50;;;;;;4996035;28;19986;-65
2023/10/08 07:46:56;;;;;;;;;;;18.70;67.80;;;;;;4978488;28;19998;-65
2023/10/08 07:49:29;;;;;;;;;;;18.70;65.70;;;;;;4995736;28;19987;-64
2023/10/08 07:51:56;;;;;;;;;;;18.70;65.40;;;;;;4995754;28;20077;-64
2023/10/08 07:54:27;;;;;;;;;;;18.70;66.70;;;;;;4995809;28;20077;-63
2023/10/08 07:57:00;;;;;;;;;;;18.80;69.20;;;;;;4995837;28;20084;-64
2023/10/08 07:59:25;;;;;;;;;;;19.00;70.40;;;;;;4995646;28;19986;-64
2023/10/08 08:01:52;;;;;;;;;;;19.10;65.80;;;;;;4995733;28;20037;-63
2023/10/08 08:04:33;;;;;;;;;;;19.30;65.90;;;;;;4995400;28;20027;-65
2023/10/08 08:07:01;;;;;;;;;;;19.50;64.20;;;;;;4995801;28;19987;-65
2023/10/08 08:09:27;;;;;;;;;;;19.70;63.20;;;;;;4995533;28;19986;-65
2023/10/08 08:11:57;;;;;;;;;;;20.20;62.50;;;;;;4995438;28;20018;-65
2023/10/08 08:14:24;;;;;;;;;;;21.00;59.90;;;;;;4995456;28;20468;-65
2023/10/08 08:16:50;;;;;;;;;;;21.10;56.00;;;;;;4995444;28;19987;-64
2023/10/08 08:19:16;;;;;;;;;;;20.90;57.30;;;;;;4995219;28;19990;-64
2023/10/08 08:21:45;;;;;;;;;;;20.70;57.40;;;;;;4995221;28;20122;-65
2023/10/08 08:24:13;;;;;;;;;;;20.50;56.90;;;;;;4995280;28;19987;-64
2023/10/08 08:27:01;;;;;;;;;;;20.40;55.90;;;;;;4995217;28;19991;-64
2023/10/08 08:29:27;;;;;;;;;;;20.30;55.90;;;;;;4995241;28;20079;-65
2023/10/08 08:31:53;;;;;;;;;;;20.30;56.30;;;;;;4995028;28;20074;-63
2023/10/08 08:34:19;;;;;;;;;;;20.30;57.20;;;;;;4994892;28;19994;-63
2023/10/08 08:36:48;;;;;;;;;;;20.30;57.90;;;;;;4995339;28;19987;-63
2023/10/08 08:39:32;;;;;;;;;;;20.50;57.70;;;;;;4977865;28;20365;-63
2023/10/08 08:42:04;;;;;;;;;;;20.50;55.50;;;;;;4994687;28;19994;-64
2023/10/08 08:44:30;;;;;;;;;;;20.50;57.70;;;;;;4994903;28;20361;-65
2023/10/08 08:46:58;;;;;;;;;;;20.50;56.90;;;;;;4994696;28;19987;-64
2023/10/08 08:49:25;;;;;;;;;;;20.40;56.40;;;;;;4994809;28;19986;-64
2023/10/08 08:51:53;;;;;;;;;;;20.50;57.50;;;;;;4994659;28;20019;-64
2023/10/08 08:54:20;;;;;;;;;;;20.60;56.70;;;;;;4994721;28;19991;-65
2023/10/08 08:56:46;;;;;;;;;;;20.70;58.80;;;;;;4994780;28;19994;-65
2023/10/08 08:59:12;;;;;;;;;;;20.90;57.30;;;;;;4994615;28;20042;-65
2023/10/08 09:01:38;;;;;;;;;;;21.10;57.10;;;;;;4994351;28;19991;-65
2023/10/08 09:04:07;;;;;;;;;;;21.20;55.80;;;;;;4994483;28;20027;-65
2023/10/08 09:06:39;;;;;;;;;;;21.40;57.00;;;;;;4994526;28;19987;-64
2023/10/08 09:09:21;;;;;;;;;;;21.50;57.90;;;;;;4994498;28;20077;-64
2023/10/08 09:11:55;;;;;;;;;;;21.60;53.00;;;;;;4994422;28;20098;-64
2023/10/08 09:14:21;;;;;;;;;;;22.00;54.50;;;;;;4994396;28;20015;-64
2023/10/08 09:16:47;;;;;;;;;;;22.20;53.00;;;;;;4994222;28;19987;-63
2023/10/08 09:19:18;;;;;;;;;;;22.60;53.70;;;;;;4994322;28;20049;-65
2023/10/08 09:21:59;;;;;;;;;;;22.80;53.50;;;;;;4994594;28;20051;-66
2023/10/08 09:24:25;;;;;;;;;;;23.20;50.60;;;;;;4994398;28;19994;-65
2023/10/08 09:26:55;;;;;;;;;;;23.30;49.70;;;;;;4994195;28;19987;-63
2023/10/08 09:29:24;;;;;;;;;;;23.30;48.00;;;;;;4976781;28;20360;-65
2023/10/08 09:31:56;;;;;;;;;;;24.10;48.30;;;;;;4993984;28;20061;-64
2023/10/08 09:34:25;;;;;;;;;;;24.60;46.70;;;;;;4976776;28;20041;-65
2023/10/08 09:36:53;;;;;;;;;;;24.70;46.80;;;;;;4994480;28;20132;-64
2023/10/08 09:39:23;;;;;;;;;;;24.90;43.20;;;;;;4994097;28;20442;-63
2023/10/08 09:41:53;;;;;;;;;;;25.10;44.30;;;;;;4994327;28;19994;-66
2023/10/08 09:44:19;;;;;;;;;;;25.20;44.00;;;;;;4994120;28;20013;-65
2023/10/08 09:46:48;;;;;;;;;;;25.40;43.80;;;;;;4993871;28;20042;-66
2023/10/08 09:49:14;;;;;;;;;;;25.60;43.70;;;;;;4994207;28;19991;-64
2023/10/08 09:51:40;;;;;;;;;;;25.90;43.90;;;;;;4993989;28;20014;-66
2023/10/08 09:54:18;;;;;;;;;;;25.90;44.00;;;;;;4997046;28;20434;-65
2023/10/08 09:56:44;;;;;;;;;;;26.00;41.80;;;;;;4998107;28;20041;-66
2023/10/08 09:59:10;;;;;;;;;;;25.80;40.50;;;;;;4997790;28;19987;-65
2023/10/08 10:01:40;;;;;;;;;;;25.50;40.80;;;;;;4997799;28;19993;-65
2023/10/08 10:04:08;;;;;;;;;;;25.20;41.20;;;;;;4997924;28;20029;-65
2023/10/08 10:06:36;;;;;;;;;;;25.30;41.90;;;;;;4997884;28;20356;-66
2023/10/08 10:09:01;;;;;;;;;;;25.50;40.90;;;;;;4997689;28;20037;-66
2023/10/08 10:11:28;;;;;;;;;;;25.90;40.30;;;;;;4997760;28;20010;-64
2023/10/08 10:13:59;;;;;;;;;;;26.20;39.60;;;;;;4997474;28;20025;-66
2023/10/08 10:16:26;;;;;;;;;;;26.60;41.80;;;;;;4997567;28;19991;-64
2023/10/08 10:18:56;;;;;;;;;;;26.90;39.00;;;;;;4997696;28;19987;-65
2023/10/08 10:21:41;;;;;;;;;;;27.10;40.10;;;;;;4997480;28;19993;-66
2023/10/08 10:24:21;;;;;;;;;;;27.10;43.70;;;;;;4997511;28;20381;-66
2023/10/08 10:26:50;;;;;;;;;;;27.50;41.00;;;;;;4997458;28;19993;-66
2023/10/08 10:29:19;;;;;;;;;;;27.60;38.50;;;;;;4997271;28;20074;-66
2023/10/08 10:31:49;;;;;;;;;;;27.70;42.10;;;;;;4997285;28;20015;-65
2023/10/08 10:34:18;;;;;;;;;;;27.80;40.00;;;;;;4997229;28;20037;-64
2023/10/08 10:36:48;;;;;;;;;;;28.10;41.30;;;;;;4997297;28;20381;-66
2023/10/08 10:39:16;;;;;;;;;;;28.60;39.40;;;;;;4997276;28;20045;-67
2023/10/08 10:41:46;;;;;;;;;;;28.60;36.00;;;;;;4997187;28;20365;-64
2023/10/08 10:44:13;;;;;;;;;;;28.60;37.20;;;;;;4996977;28;19987;-63
2023/10/08 10:46:42;;;;;;;;;;;28.80;38.90;;;;;;4997119;28;19986;-67
2023/10/08 10:52:05;;;;;;;;;;;29.30;38.60;;;;;;4979622;28;20030;-64
2023/10/08 10:54:36;;;;;;;;;;;29.50;34.60;;;;;;4997065;28;19987;-66
2023/10/08 10:57:17;;;;;;;;;;;29.70;37.80;;;;;;4996981;28;19993;-66
2023/10/08 10:59:52;;;;;;;;;;;30.00;33.80;;;;;;4996949;28;20413;-64
2023/10/08 11:02:30;;;;;;;;;;;30.20;34.10;;;;;;4997051;28;20037;-65
2023/10/08 11:05:01;;;;;;;;;;;30.40;34.70;;;;;;4996379;28;20523;-63
2023/10/08 11:07:26;;;;;;;;;;;30.60;32.30;;;;;;4996832;28;20047;-66
2023/10/08 11:09:55;;;;;;;;;;;30.50;32.30;;;;;;4979101;28;19995;-64
2023/10/08 11:12:23;;;;;;;;;;;30.60;33.20;;;;;;4996371;28;20017;-65
2023/10/08 11:14:51;;;;;;;;;;;30.80;32.90;;;;;;4996631;28;20002;-63
2023/10/08 11:17:26;;;;;;;;;;;30.70;32.60;;;;;;4996496;28;19994;-62
2023/10/08 11:19:52;;;;;;;;;;;30.80;34.50;;;;;;4996570;28;19993;-65
2023/10/08 11:22:18;;;;;;;;;;;31.00;33.80;;;;;;4996429;28;20438;-65
2023/10/08 11:24:47;;;;;;;;;;;31.20;33.30;;;;;;4996387;28;20030;-66
2023/10/08 11:27:16;;;;;;;;;;;31.40;33.20;;;;;;4996159;28;19990;-66
2023/10/08 11:29:43;;;;;;;;;;;31.30;34.20;;;;;;4996316;28;19987;-63
2023/10/08 11:32:12;;;;;;;;;;;31.20;33.80;;;;;;4996114;28;20019;-65
2023/10/08 11:34:41;;;;;;;;;;;31.20;33.90;;;;;;4996288;28;19987;-64
2023/10/08 11:37:19;;;;;;;;;;;31.30;32.40;;;;;;4996171;28;20009;-63
2023/10/08 11:39:48;;;;;;;;;;;31.20;33.60;;;;;;4996238;28;20010;-64
2023/10/08 11:45:38;;;;;;;;;;;31.00;33.20;;;;;;4996521;28;19998;-63
2023/10/08 11:47:55;;;;;;;;;;;31.00;33.20;;;;;;4991829;28;20504;-66
2023/10/08 11:50:30;;;;;;;;;;;31.20;35.20;;;;;;4995893;28;19994;-64
2023/10/08 11:53:05;;;;;;;;;;;31.10;34.50;;;;;;4995827;28;20018;-63
2023/10/08 11:55:42;;;;;;;;;;;31.20;34.70;;;;;;4995726;28;19986;-65
2023/10/08 11:58:11;;;;;;;;;;;31.40;33.40;;;;;;4995883;28;19986;-63
2023/10/08 12:00:52;;;;;;;;;;;31.60;32.90;;;;;;4995611;28;19987;-63
2023/10/08 12:03:18;;;;;;;;;;;31.60;32.90;;;;;;4995452;28;20445;-63
2023/10/08 12:05:47;;;;;;;;;;;31.80;32.50;;;;;;4995530;28;19991;-64
2023/10/08 12:08:17;;;;;;;;;;;31.80;31.40;;;;;;4995598;28;20360;-64
2023/10/08 12:10:46;;;;;;;;;;;31.80;31.60;;;;;;4995614;28;19987;-63
2023/10/08 12:13:12;;;;;;;;;;;31.70;32.00;;;;;;4995349;28;20061;-65
2023/10/08 12:15:41;;;;;;;;;;;31.70;33.40;;;;;;4994767;28;20388;-63
2023/10/08 12:18:24;;;;;;;;;;;31.60;32.80;;;;;;4995505;28;19987;-63
2023/10/08 12:20:50;;;;;;;;;;;31.70;33.20;;;;;;4995337;28;19997;-64
2023/10/08 12:23:24;;;;;;;;;;;31.50;31.80;;;;;;4995337;28;19994;-65
2023/10/08 12:25:51;;;;;;;;;;;31.40;32.00;;;;;;4995055;28;19995;-65
2023/10/08 12:28:19;;;;;;;;;;;31.30;32.20;;;;;;4995210;28;19994;-65
2023/10/08 12:30:45;;;;;;;;;;;31.40;34.10;;;;;;4995168;28;20401;-65
2023/10/08 12:33:15;;;;;;;;;;;31.30;32.10;;;;;;4994970;28;20420;-65
2023/10/08 12:35:53;;;;;;;;;;;31.20;31.20;;;;;;4995094;28;19987;-65
2023/10/08 12:38:22;;;;;;;;;;;30.80;31.80;;;;;;4994796;28;20429;-63
2023/10/08 12:40:54;;;;;;;;;;;30.60;33.10;;;;;;4995285;28;20436;-63
2023/10/08 12:43:20;;;;;;;;;;;30.50;32.00;;;;;;4994987;28;20472;-64
2023/10/08 12:45:51;;;;;;;;;;;30.60;32.70;;;;;;4995078;28;20393;-65
2023/10/08 12:48:21;;;;;;;;;;;30.80;34.80;;;;;;4994918;28;20085;-65
2023/10/08 12:50:52;;;;;;;;;;;31.10;32.60;;;;;;4994871;28;20358;-64
2023/10/08 12:53:26;;;;;;;;;;;31.20;32.50;;;;;;4994565;28;20023;-63
2023/10/08 12:55:53;;;;;;;;;;;31.50;34.30;;;;;;4994760;28;19987;-65
2023/10/08 12:58:25;;;;;;;;;;;31.80;31.90;;;;;;4994706;28;19986;-64
2023/10/08 13:00:57;;;;;;;;;;;31.90;32.60;;;;;;4994636;28;19994;-65
2023/10/08 13:03:25;;;;;;;;;;;31.90;32.70;;;;;;4994507;28;20035;-66
2023/10/08 13:05:54;;;;;;;;;;;32.10;31.30;;;;;;4994494;28;19987;-63
2023/10/08 13:08:20;;;;;;;;;;;32.30;31.70;;;;;;4994368;28;19994;-65
2023/10/08 13:10:49;;;;;;;;;;;32.10;32.40;;;;;;4977074;28;20465;-66
2023/10/08 13:13:14;;;;;;;;;;;32.20;32.20;;;;;;4994271;28;20109;-64
2023/10/08 13:15:43;;;;;;;;;;;32.40;33.90;;;;;;4994502;28;20484;-65
2023/10/08 13:18:09;;;;;;;;;;;32.60;32.30;;;;;;4994424;28;20012;-64
2023/10/08 13:20:34;;;;;;;;;;;32.40;32.30;;;;;;4994288;28;20078;-64
2023/10/08 13:23:00;;;;;;;;;;;32.40;32.30;;;;;;4994322;28;19987;-66
2023/10/08 13:25:26;;;;;;;;;;;32.50;32.00;;;;;;4994322;28;19991;-63
2023/10/08 13:27:52;;;;;;;;;;;32.80;31.90;;;;;;4994170;28;19987;-64
2023/10/08 13:30:17;;;;;;;;;;;33.00;31.90;;;;;;4994221;28;20433;-66
2023/10/08 13:32:43;;;;;;;;;;;32.90;31.60;;;;;;4994194;28;20050;-65
2023/10/08 13:35:11;;;;;;;;;;;32.90;33.70;;;;;;4994178;28;20081;-65
2023/10/08 13:37:36;;;;;;;;;;;32.90;32.50;;;;;;4994031;28;20073;-63
2023/10/08 13:40:02;;;;;;;;;;;33.00;32.10;;;;;;4994220;28;19986;-64
2023/10/08 13:42:29;;;;;;;;;;;32.70;32.60;;;;;;4994074;28;20077;-65
2023/10/08 13:44:57;;;;;;;;;;;32.40;32.50;;;;;;4994130;28;19987;-63
2023/10/08 13:47:26;;;;;;;;;;;32.20;33.60;;;;;;4994403;28;19986;-65
2023/10/08 13:49:52;;;;;;;;;;;32.10;33.50;;;;;;4994011;28;20388;-65
2023/10/08 13:52:20;;;;;;;;;;;32.10;35.80;;;;;;4994224;28;20440;-62
2023/10/08 13:54:52;;;;;;;;;;;31.90;37.50;;;;;;4994162;28;19987;-63
2023/10/08 13:57:19;;;;;;;;;;;31.80;37.30;;;;;;4993992;28;20338;-63
2023/10/08 13:59:46;;;;;;;;;;;31.50;37.30;;;;;;4994033;28;19987;-64
2023/10/08 14:02:15;;;;;;;;;;;31.40;35.80;;;;;;4994036;28;19994;-64
2023/10/08 14:04:44;;;;;;;;;;;31.00;38.10;;;;;;4993774;28;20022;-63
2023/10/08 14:07:11;;;;;;;;;;;30.80;37.10;;;;;;4993806;28;20083;-64
2023/10/08 14:09:37;;;;;;;;;;;30.60;38.70;;;;;;4993918;28;19987;-63
2023/10/08 14:12:03;;;;;;;;;;;30.30;40.40;;;;;;4993749;28;20016;-64
2023/10/08 14:14:34;;;;;;;;;;;30.00;41.30;;;;;;4993881;28;19995;-64
2023/10/08 14:17:03;;;;;;;;;;;29.50;42.00;;;;;;4993951;28;20018;-63
2023/10/08 14:19:36;;;;;;;;;;;29.00;43.70;;;;;;4993617;28;20154;-63
2023/10/08 14:22:03;;;;;;;;;;;28.90;44.30;;;;;;4993623;28;19986;-64
2023/10/08 14:24:32;;;;;;;;;;;28.90;43.50;;;;;;4993836;28;19991;-63
2023/10/08 14:27:04;;;;;;;;;;;28.70;43.40;;;;;;4993808;28;20038;-63
2023/10/08 14:29:29;;;;;;;;;;;28.60;44.90;;;;;;4993723;28;19991;-64
2023/10/08 14:31:56;;;;;;;;;;;28.60;43.40;;;;;;4976064;28;20465;-63
2023/10/08 14:45:19;;;;;;;;;;;28.70;40.00;;;;;;4997148;28;19993;-65
2023/10/08 14:47:44;;;;;;;;;;;28.50;36.90;;;;;;4996977;28;20373;-64
2023/10/08 14:50:16;;;;;;;;;;;28.50;37.80;;;;;;4997062;28;20038;-63
2023/10/08 14:52:42;;;;;;;;;;;28.50;37.50;;;;;;4996963;28;20025;-64
2023/10/08 14:55:08;;;;;;;;;;;28.60;38.70;;;;;;4996903;28;19994;-63
2023/10/08 14:57:33;;;;;;;;;;;28.60;38.30;;;;;;4996879;28;19991;-63
2023/10/08 14:59:59;;;;;;;;;;;28.60;38.90;;;;;;4996907;28;19991;-63
2023/10/08 15:02:29;;;;;;;;;;;28.40;40.60;;;;;;4996771;28;20437;-63
2023/10/08 15:04:55;;;;;;;;;;;28.20;41.40;;;;;;4996513;28;20459;-65
2023/10/08 15:07:21;;;;;;;;;;;27.80;42.90;;;;;;4996833;28;20464;-64
2023/10/08 15:09:49;;;;;;;;;;;27.30;44.40;;;;;;4996626;28;19987;-65
2023/10/08 15:12:16;;;;;;;;;;;26.70;45.90;;;;;;4996731;28;20033;-63
2023/10/08 15:14:42;;;;;;;;;;;26.20;46.60;;;;;;4996628;28;20455;-65
2023/10/08 15:17:09;;;;;;;;;;;26.00;46.50;;;;;;4996440;28;20081;-63
2023/10/08 15:19:35;;;;;;;;;;;25.90;46.50;;;;;;4996529;28;19986;-64
2023/10/08 15:22:00;;;;;;;;;;;25.90;47.20;;;;;;4996403;28;20390;-63
2023/10/08 15:24:26;;;;;;;;;;;25.90;46.70;;;;;;4996399;28;19987;-63
2023/10/08 15:26:53;;;;;;;;;;;25.90;46.00;;;;;;4996311;28;20053;-63
2023/10/08 15:29:25;;;;;;;;;;;25.90;45.80;;;;;;4996339;28;19987;-65
2023/10/08 15:31:51;;;;;;;;;;;25.90;46.00;;;;;;4996287;28;20010;-64
2023/10/08 15:34:17;;;;;;;;;;;25.70;45.90;;;;;;4996347;28;19994;-63
2023/10/08 15:36:43;;;;;;;;;;;25.70;46.50;;;;;;4996204;28;19986;-64
2023/10/08 15:39:22;;;;;;;;;;;25.50;47.00;;;;;;4996144;28;20433;-62
2023/10/08 15:41:51;;;;;;;;;;;25.30;47.60;;;;;;4996257;28;19986;-64
2023/10/08 15:44:22;;;;;;;;;;;25.10;48.00;;;;;;4978661;28;20037;-63